Thedford, Canada
Current Conditions -  °F | °C
As of 5:00 AM on Sunday 25 Jan 2015 (Local Time) from CYZR Reporting Station
Overcast Overcast  
Wind Chill: 11°   Ceiling: 2900
Heat Index: 25°   Visibility: 9mi
Dew Point: 18°   Wind: 20mph
Humidity: 74%   Direction: 10°N
Pressure: 29.78"   Gusts: 25mph
Location:  43.17°N, 81.85°W
Report Text: CYZR 251000Z AUTO 01017G22KT 9SM FEW024 BKN029 OVC038 M04/M08 A2978 RMK SLP092
Loading
Personal Weather Stations






























Interactive Weather Map New forecast layout! Learn more

10-Day Weather Forecast

Advertisements
Track Severe Weather on mobile